Aviation Digital Data Service (ADDS)

Output produced by METARs form (0244 UTC 24 July 2017)
found at http://www.aviationweather.gov/adds/metars/
 
KPAE 232320Z 2400/2424 33008KT P6SM SKC 
     FM240600 04006KT P6SM SKC 
     FM241600 33007KT P6SM SKC
       
TAF AMD KPAM 232330Z 2323/2424 22006KT 9999 SCT020 SCT250 QNH2992INS 
     BECMG 2410/2411 23009KT 9999 VCTS SCT020CB BKN150 QNH2999INS 
     TEMPO 2412/2418 25012KT 6000 -TSRA BKN020CB 
     BECMG 2418/2419 24009KT 9999 NSW SCT020 BKN150 QNH2995INS TX31/2418Z TN24/2408Z LAST NO AMDS AFTR 2323 NEXT 2410
       
KPBF 232320Z 2400/2424 20007KT P6SM SCT045 BKN120 
     FM240200 VRB03KT P6SM VCTS SCT045CB BKN250 
     FM240700 VRB03KT P6SM SCT040 SCT250 
     TEMPO 2410/2414 5SM BR 
     FM241500 24005KT P6SM SCT045 SCT250
       
KPBG 232336Z 2400/2424 01007KT P6SM BKN130 
     FM240600 02004KT P6SM VCSH OVC060 
     FM240900 00000KT 6SM -SHRA BR OVC045 
     FM241400 14006KT 4SM +SHRA BR OVC035 
     FM242200 14008KT 5SM -SHRA BR OVC020
       
KPBI 232320Z 2400/2424 13012KT P6SM FEW030 BKN200 
     FM240200 00000KT P6SM FEW030 SCT250 
     FM241500 13009KT P6SM SCT030 SCT250
       
KPDK 232337Z 2400/2424 25009KT P6SM VCSH SCT050 
     TEMPO 2400/2402 VRB15G25KT 3SM TSRA BKN035CB 
     FM240200 25005KT P6SM FEW050 SCT120 SCT250 
     FM241400 27006KT P6SM FEW040 SCT250 
     FM241600 28007KT P6SM VCSH SCT050 
     PROB30 2417/2423 4SM TSRA BKN035CB
       
KPDT 240057Z 2401/2424 32007KT P6SM FEW250 
     FM240600 29008KT P6SM FEW250 
     FM242100 34010KT P6SM SKC
       
KPDX 232325Z 2400/2424 32015G25KT P6SM SKC 
     FM240700 32010KT P6SM SKC 
     FM241000 33005KT P6SM SKC 
     FM242000 32010KT P6SM SKC
       
KPGA 232327Z 2400/2424 04006KT P6SM BKN120 
     TEMPO 2400/2402 VRB15G25KT -TSRA BKN080CB 
     FM240200 16008KT P6SM FEW080 BKN120 
     FM241900 VRB05KT P6SM VCSH SCT080 OVC110
       
KPGD 232322Z 2400/2424 VRB04KT P6SM SCT100 BKN250 
     FM241500 23005KT P6SM FEW025 SCT100 BKN250 
     FM241800 25007KT P6SM VCTS SCT030CB SCT100 BKN250 
     FM242200 27008KT P6SM SCT040 BKN100 OVC250
       
KPGV 240222Z 2402/2424 24007KT P6SM -RA BKN003 
     FM240400 21012KT P6SM SCT003 BKN150 
     FM240900 22008KT P6SM FEW015 SCT150 
     FM241500 22010G18KT P6SM -SHRA VCTS SCT050CB BKN100 AMD LTD TO CLD VIS AND WIND
       
KPHF 240109Z 2401/2424 20015G20KT P6SM SCT015 BKN050 
     FM240300 21014KT P6SM VCSH BKN040 BKN250 
     FM240700 24009KT P6SM BKN120 
     FM241200 23011KT P6SM BKN250 
     FM241900 24010KT P6SM SCT070
       
KPHL 240215Z 2402/2506 13007KT P6SM -SHRA SCT020 BKN100 OVC110 
     FM240300 10007KT 4SM -SHRA OVC025 
     FM241100 34005KT P6SM OVC015 
     FM241500 31009KT P6SM BKN040 
     FM250000 36006KT P6SM BKN250 
     FM250400 05006KT P6SM BKN050
       
KPHX 240240Z 2403/2506 11020KT P6SM VCTS FEW040 BKN080CB BKN150 
     TEMPO 2403/2404 11028G40KT 4SM +TSRA BLDU 
     FM240400 12018G28KT P6SM VCTS BKN080CB BKN150 OVC200 
     FM240500 VRB05KT P6SM VCSH SCT070 BKN100 
     FM241200 15006KT P6SM VCSH FEW050 BKN090 BKN150 
     FM241800 VRB05KT P6SM SCT060 BKN140 BKN200
       
KPIA 232321Z 2400/2424 30007KT P6SM FEW040 FEW200 
     FM240300 34004KT P6SM FEW040 FEW250 
     TEMPO 2409/2413 4SM BR 
     FM241300 36004KT P6SM SCT030
       
KPIE 232322Z 2400/2424 20005KT P6SM SCT100 BKN150 
     FM240100 17003KT P6SM SCT100 BKN250 
     FM241200 22008KT P6SM VCTS SCT025CB BKN060 BKN100 
     FM242000 25007KT P6SM VCSH SCT040 OVC100
       
KPIH 232338Z 2400/2424 25008KT P6SM FEW100 
     FM240300 19007KT P6SM SKC 
     FM241700 24008KT P6SM FEW100 BKN200 
     FM242100 26011KT P6SM VCTS FEW080 SCT100CB BKN130
       
KPIR 232323Z 2400/2424 VRB03KT P6SM SKC 
     FM240500 12008KT P6SM FEW250 
     FM241500 14012KT P6SM SCT250
       
KPIT 232329Z 2400/2506 21005KT P6SM -SHRA VCTS SCT015 BKN040CB 
     TEMPO 2400/2403 3SM -TSRA BKN040CB 
     FM240600 25004KT 2SM BR BKN015 
     FM240800 26004KT 3SM BR SCT008 
     FM241400 27006KT P6SM SCT050 
     FM241800 28009KT P6SM BKN040
       
KPKB 240049Z 2401/2424 24008KT P6SM VCTS BKN035CB 
     TEMPO 2402/2405 4SM +TSRA OVC025CB 
     FM240700 00000KT P6SM BKN010 
     FM241100 00000KT 6SM BR SCT003 BKN015 
     FM241400 24004KT P6SM SCT250
       
KPMD 240210Z 2402/2424 24010KT P6SM SKC 
     FM241200 VRB05KT P6SM SKC 
     FM241800 23007KT P6SM SKC 
     FM242100 23015KT P6SM SKC
       
KPNA 232326Z 2400/2424 33011KT P6SM SCT110 
     FM240200 34007KT P6SM SCT110 
     FM240500 33006KT P6SM SKC 
     FM241900 31012KT P6SM SCT120 BKN150 AMD LTD TO CLD VIS AND WIND
       
KPNE 240217Z 2402/2424 10009KT P6SM -SHRA FEW120 BKN200 
     FM240300 10005KT P6SM SCT150 BKN200 
     FM240400 10005KT P6SM VCSH SCT050 BKN100 
     TEMPO 2404/2408 4SM -TSRA SCT030CB BKN050 OVC070 
     FM240800 VRB03KT P6SM VCTS OVC040CB 
     TEMPO 2408/2409 4SM -SHRA OVC025 
     FM240900 VRB03KT 6SM -SHRA OVC025 
     FM241100 22004KT P6SM OVC080 
     FM241500 35009KT P6SM BKN025 
     FM241800 03008KT P6SM SCT030 
     FM241900 04007KT P6SM BKN250
       
KPNS 232353Z 2400/2424 23013KT P6SM FEW025 BKN200 
     FM240200 25004KT P6SM VCTS FEW030CB BKN200 
     FM241000 30007KT P6SM VCTS BKN050CB OVC100 
     TEMPO 2410/2414 3SM TSRA BKN030CB 
     FM241400 22010KT P6SM VCTS BKN050CB OVC100 
     TEMPO 2414/2418 3SM TSRA BKN050CB
       
TAF KPOB 240100Z 2401/2507 21012KT 8000 -SHRA SCT015 QNH2984INS 
     BECMG 2401/2402 22009KT 8000 BR FEW015 SCT050 QNH2984INS 
     BECMG 2408/2409 22006KT 8000 BR BKN010 QNH2987INS 
     BECMG 2414/2415 24010G15KT 8000 -SHRA BKN050 QNH2992INS 
     TEMPO 2420/2424 VRB25G35KT 4800 -TSRA BKN030CB 
     BECMG 2423/2424 23006KT 9999 NSW FEW050 SCT100 QNH2994INS TX35/2421Z TN23/2412Z
       
KPOU 232320Z 2400/2424 14005KT P6SM VCSH OVC050 
     FM240300 13006KT P6SM VCSH OVC020 
     FM240500 11007KT 5SM -SHRA OVC015 
     FM240900 08007KT 4SM -SHRA OVC010 
     PROB30 2409/2413 2SM TS OVC005CB 
     FM241600 06007KT P6SM VCSH OVC020
       
KPQI 232320Z 2400/2424 VRB03KT P6SM FEW070 SCT250
       
KPRB 232333Z 2400/2424 21015G20KT P6SM SKC 
     FM240200 21012KT P6SM SKC 
     FM240500 VRB03KT P6SM SKC 
     FM241700 21007KT P6SM SKC 
     FM242100 22018G25KT P6SM SKC
       
KPRC 232327Z 2400/2424 34008KT P6SM VCTS SCT060 OVC080CB 
     TEMPO 2400/2402 VRB20G35KT 2SM +TSRA BR BKN060CB 
     FM240200 02008KT P6SM -SHRA SCT080 OVC100 
     FM240600 VRB05KT P6SM SCT080 BKN100 
     FM241500 VRB05KT P6SM -SHRA SCT040 OVC060
       
KPSC 232333Z 2400/2424 31006KT P6SM FEW250 
     FM240600 31010KT P6SM FEW250 
     FM241200 34006KT P6SM SKC
       
KPSF 232320Z 2400/2424 12005KT P6SM BKN100 
     FM240200 13006KT P6SM VCSH OVC050 
     FM240700 12008KT 5SM -SHRA OVC050 
     FM240900 10008KT 4SM -SHRA OVC015 
     FM241600 09011G20KT 6SM -SHRA OVC015 
     FM242200 08008KT P6SM VCSH OVC025
       
KPSM 232320Z 2400/2424 12003KT P6SM SCT120 BKN200 
     FM240100 11003KT P6SM BKN100 
     FM241300 09008KT P6SM VCSH SCT010 OVC045 
     FM241600 08013G22KT 6SM -RA BR OVC012 
     FM242100 06016G22KT 6SM BR OVC007
       
KPSP 232332Z 2400/2424 12009KT P6SM SCT100 
     FM240100 VRB05KT P6SM SCT150 
     FM240300 33010G18KT P6SM SCT150 
     FM240600 VRB05KT P6SM SCT150 
     FM242100 11008KT P6SM SCT100
       
KPUB 232332Z 2400/2424 14012KT P6SM SCT100 BKN200 
     FM240200 09008KT P6SM SCT120 BKN200 
     FM240800 VRB06KT P6SM FEW200 
     FM241600 16008KT P6SM SKC 
     FM242000 14012KT P6SM SCT120 SCT200
       
KPUW 232320Z 2400/2424 24010G17KT P6SM FEW070 FEW200 
     FM240200 27006KT P6SM SKC 
     FM242100 29006KT P6SM FEW080
       
KPVD 232325Z 2400/2424 09008KT P6SM SCT150 
     FM240900 08007KT P6SM -RA BKN050 
     FM241300 06012G21KT 2SM RA SCT010 OVC050 
     FM241500 05011G26KT 2SM -RA BR OVC008 
     FM241800 05010G26KT P6SM VCSH OVC008
       
KPVU 232326Z 2400/2424 31014KT P6SM VCTS SCT100CB BKN120 
     FM240100 15011KT P6SM VCSH SCT100 BKN120
       
KPWM 232320Z 2400/2424 21005KT P6SM SCT200 
     FM240700 07003KT P6SM OVC100 
     FM241400 09009KT P6SM SCT010 BKN040 
     FM241600 08010G17KT P6SM -RA OVC012 
     FM242100 05011KT 6SM BR OVC007